Time;durP1;ratioP1;P1;durP2;ratioP2;P2;SDS_P1;SDS_P2;PMS_P1;PMS_P2;Temp;Humidity;BMP_temperature;BMP_pressure;BME280_temperature;BME280_humidity;BME280_pressure;Samples;Min_cycle;Max_cycle;Signal;HPM_P1;HPM_P2
2021/10/09 00:00:31;;;;;;;29.98;19.60;;;;;;;9.64;87.27;103015.16;5075452;28;20082;-40
2021/10/09 00:02:56;;;;;;;28.73;19.17;;;;;;;9.61;86.98;103015.41;5075329;28;20024;-40
2021/10/09 00:05:21;;;;;;;29.58;18.85;;;;;;;9.66;86.72;103010.66;5075552;28;20028;-40
2021/10/09 00:07:47;;;;;;;33.10;19.75;;;;;;;9.68;86.80;103005.38;5075011;28;20013;-40
2021/10/09 00:10:23;;;;;;;32.85;19.77;;;;;;;9.69;86.88;103014.75;5075347;28;20386;-40
2021/10/09 00:12:48;;;;;;;29.20;19.15;;;;;;;9.68;87.23;103015.72;5075439;28;20026;-40
2021/10/09 00:15:13;;;;;;;33.25;19.60;;;;;;;9.62;86.93;103009.28;5075575;28;20036;-40
2021/10/09 00:17:39;;;;;;;30.92;18.98;;;;;;;9.50;87.38;103018.03;5074905;28;20027;-39
2021/10/09 00:20:04;;;;;;;30.80;19.77;;;;;;;9.58;87.10;103009.66;5075108;28;20028;-40
2021/10/09 00:22:30;;;;;;;29.75;19.10;;;;;;;9.61;86.95;103012.81;5075650;28;20055;-40
2021/10/09 00:24:55;;;;;;;32.80;18.65;;;;;;;9.57;87.61;103015.78;5074899;28;20433;-39
2021/10/09 00:27:20;;;;;;;32.28;19.73;;;;;;;9.57;87.70;103016.59;5074901;28;20020;-40
2021/10/09 00:29:46;;;;;;;31.90;19.08;;;;;;;9.57;87.41;103016.59;5073480;28;20028;-38
2021/10/09 00:32:11;;;;;;;30.63;19.52;;;;;;;9.49;87.28;103013.81;5074470;28;20108;-39
2021/10/09 00:34:37;;;;;;;27.10;18.27;;;;;;;9.56;87.69;103014.16;5074377;28;20024;-39
2021/10/09 00:37:02;;;;;;;30.70;18.85;;;;;;;9.52;87.67;102995.47;5074476;28;20024;-38
2021/10/09 00:39:27;;;;;;;29.55;19.65;;;;;;;9.56;87.52;103002.06;5074531;28;20039;-39
2021/10/09 00:41:53;;;;;;;28.27;18.38;;;;;;;9.70;87.47;103013.84;5074324;28;20028;-39
2021/10/09 00:44:18;;;;;;;31.33;18.85;;;;;;;9.74;87.37;103017.78;5074122;28;20479;-39
2021/10/09 00:46:44;;;;;;;28.02;18.77;;;;;;;9.70;87.38;103008.66;5074008;28;20036;-39
2021/10/09 00:49:15;;;;;;;28.05;19.02;;;;;;;9.73;87.36;103013.56;5073986;28;20098;-39
2021/10/09 00:51:46;;;;;;;28.52;18.83;;;;;;;9.80;87.70;103012.09;5074305;28;20020;-40
2021/10/09 00:54:13;;;;;;;30.95;19.10;;;;;;;9.79;87.84;103010.47;5074015;28;20099;-38
2021/10/09 00:56:42;;;;;;;26.73;18.27;;;;;;;9.79;87.70;103012.25;5073980;28;20471;-39
2021/10/09 00:59:10;;;;;;;33.08;20.13;;;;;;;9.84;88.23;103017.84;5073903;28;20035;-39
2021/10/09 01:01:36;;;;;;;28.02;19.10;;;;;;;9.84;88.00;103013.50;5074216;28;20494;-39
2021/10/09 01:04:05;;;;;;;37.78;21.30;;;;;;;9.82;88.82;103007.66;5073825;28;20020;-39
2021/10/09 01:06:31;;;;;;;33.05;20.90;;;;;;;9.86;88.62;103005.63;5073791;28;20502;-39
2021/10/09 01:08:56;;;;;;;33.85;21.05;;;;;;;9.93;89.37;103005.00;5073985;28;20063;-39
2021/10/09 01:11:22;;;;;;;31.23;19.98;;;;;;;10.00;88.45;102999.31;5073912;28;20120;-39
2021/10/09 01:13:47;;;;;;;32.85;20.85;;;;;;;9.96;88.53;102998.75;5073627;28;20395;-38
2021/10/09 01:16:23;;;;;;;33.85;19.85;;;;;;;10.00;88.39;102988.97;5073732;28;20024;-39
2021/10/09 01:18:50;;;;;;;33.72;20.55;;;;;;;10.01;88.43;102996.59;5073369;28;20016;-39
2021/10/09 01:21:15;;;;;;;33.55;20.23;;;;;;;10.05;89.00;102997.16;5073545;28;20033;-39
2021/10/09 01:23:41;;;;;;;34.78;21.25;;;;;;;9.99;89.11;102995.09;5073423;28;20090;-39
2021/10/09 01:26:07;;;;;;;33.30;20.50;;;;;;;10.03;89.14;102986.94;5073662;28;20056;-40
2021/10/09 01:28:33;;;;;;;32.00;20.35;;;;;;;10.08;88.86;102992.53;5072759;28;20048;-39
2021/10/09 01:30:58;;;;;;;35.65;21.40;;;;;;;10.08;89.31;102989.16;5073844;28;20036;-39
2021/10/09 01:33:23;;;;;;;35.63;21.15;;;;;;;10.03;89.38;102986.94;5073295;28;20058;-39
2021/10/09 01:35:51;;;;;;;33.55;21.45;;;;;;;10.06;89.39;102989.25;5073270;28;20394;-39
2021/10/09 01:38:19;;;;;;;33.22;20.00;;;;;;;10.11;89.22;102987.13;5073110;28;20047;-39
2021/10/09 01:40:44;;;;;;;35.00;20.67;;;;;;;9.95;90.11;102989.34;5073216;28;20033;-39
2021/10/09 01:43:15;;;;;;;32.30;20.70;;;;;;;10.07;89.85;102983.16;5073241;28;20028;-39
2021/10/09 01:45:41;;;;;;;32.20;20.45;;;;;;;10.08;89.74;102987.38;5073165;28;20024;-39
2021/10/09 01:48:06;;;;;;;33.60;20.90;;;;;;;10.02;89.58;102987.91;5073183;28;20099;-39
2021/10/09 01:50:32;;;;;;;34.10;20.98;;;;;;;10.00;89.69;102982.03;5073332;28;20347;-39
2021/10/09 01:52:57;;;;;;;34.42;21.98;;;;;;;9.97;90.01;102984.06;5073093;28;20123;-39
2021/10/09 01:55:22;;;;;;;38.10;21.45;;;;;;;9.92;90.02;102974.91;5073127;28;20147;-39
2021/10/09 01:57:48;;;;;;;36.22;20.40;;;;;;;9.98;90.22;102980.53;5072992;28;20025;-39
2021/10/09 02:00:13;;;;;;;35.75;21.83;;;;;;;9.97;89.92;102979.72;5072974;28;20033;-38
2021/10/09 02:02:38;;;;;;;37.50;21.63;;;;;;;9.91;89.84;102978.47;5073216;28;20492;-39
2021/10/09 02:05:04;;;;;;;32.78;20.98;;;;;;;10.05;89.52;102971.31;5073005;28;20028;-39
2021/10/09 02:07:30;;;;;;;35.42;20.83;;;;;;;10.06;90.09;102970.38;5072903;28;20463;-39
2021/10/09 02:09:56;;;;;;;37.40;21.35;;;;;;;10.09;89.55;102970.09;5071850;28;20021;-39
2021/10/09 02:12:23;;;;;;;36.05;22.40;;;;;;;9.90;90.52;102970.84;5073435;28;20078;-39
2021/10/09 02:15:03;;;;;;;34.63;21.48;;;;;;;9.92;90.10;102969.75;5074146;28;20355;-39
2021/10/09 02:28:05;;;;;;;31.60;19.75;;;;;;;9.77;89.10;102962.50;5073384;28;20043;-39
2021/10/09 02:30:31;;;;;;;34.35;21.38;;;;;;;9.76;89.89;102966.03;5073024;28;20024;-39
2021/10/09 02:32:56;;;;;;;39.92;21.05;;;;;;;9.78;90.13;102961.53;5072976;28;20059;-39
2021/10/09 02:35:22;;;;;;;33.70;21.23;;;;;;;9.74;90.03;102962.75;5073233;28;20070;-39
2021/10/09 02:37:47;;;;;;;32.15;21.08;;;;;;;9.74;89.98;102965.31;5072986;28;20028;-38
2021/10/09 02:40:14;;;;;;;40.53;20.58;;;;;;;9.78;89.59;102961.53;5075534;28;20056;-38
2021/10/09 02:42:39;;;;;;;38.17;20.98;;;;;;;9.79;89.32;102955.44;5077032;28;20074;-38
2021/10/09 02:45:05;;;;;;;36.40;21.65;;;;;;;9.65;90.14;102959.16;5077155;28;20032;-39
2021/10/09 02:47:30;;;;;;;33.72;20.73;;;;;;;9.71;90.07;102954.31;5076804;28;20074;-39
2021/10/09 02:49:55;;;;;;;36.20;20.35;;;;;;;9.73;90.48;102967.09;5076787;28;20040;-39
2021/10/09 02:52:21;;;;;;;36.85;22.10;;;;;;;9.61;90.95;102961.19;5076693;28;20029;-39
2021/10/09 02:54:46;;;;;;;35.47;21.13;;;;;;;9.68;90.69;102964.06;5076718;28;20477;-39
2021/10/09 02:57:12;;;;;;;40.65;21.40;;;;;;;9.74;90.40;102968.72;5077058;28;20024;-39
2021/10/09 02:59:37;;;;;;;32.28;20.50;;;;;;;9.82;90.31;102957.75;5076626;28;20025;-39
2021/10/09 03:02:03;;;;;;;36.40;21.38;;;;;;;9.80;89.80;102960.47;5076538;28;20486;-38
2021/10/09 03:04:28;;;;;;;35.45;20.67;;;;;;;9.68;89.76;102938.25;5076539;28;20020;-39
2021/10/09 03:06:53;;;;;;;36.92;21.98;;;;;;;9.72;90.15;102962.88;5076438;28;20424;-39
2021/10/09 03:09:18;;;;;;;35.35;21.80;;;;;;;9.69;90.05;102968.28;5076657;28;20031;-39
2021/10/09 03:11:44;;;;;;;38.47;22.17;;;;;;;9.76;90.20;102969.44;5076372;28;20021;-39
2021/10/09 03:14:09;;;;;;;39.15;21.65;;;;;;;9.73;90.29;102966.28;5076233;28;20028;-39
2021/10/09 03:16:34;;;;;;;37.15;22.90;;;;;;;9.70;90.00;102954.44;5076533;28;20052;-39
2021/10/09 03:18:59;;;;;;;38.08;21.98;;;;;;;9.76;89.75;102958.28;5076049;28;20017;-39
2021/10/09 03:21:25;;;;;;;38.78;21.58;;;;;;;9.69;89.98;102952.78;5076705;28;20024;-39
2021/10/09 03:23:50;;;;;;;35.83;21.55;;;;;;;9.71;90.28;102959.47;5076599;28;20039;-39
2021/10/09 03:26:15;;;;;;;35.63;22.08;;;;;;;9.62;90.84;102967.97;5076638;28;20028;-39
2021/10/09 03:28:41;;;;;;;36.80;21.45;;;;;;;9.68;90.50;102964.88;5075930;28;20040;-39
2021/10/09 03:31:06;;;;;;;41.83;23.15;;;;;;;9.66;90.31;102959.03;5075967;28;20029;-39
2021/10/09 03:33:32;;;;;;;36.33;21.70;;;;;;;9.66;90.06;102959.03;5075975;28;20379;-40
2021/10/09 03:35:57;;;;;;;37.45;22.02;;;;;;;9.59;90.18;102951.94;5075888;28;20028;-38
2021/10/09 03:38:23;;;;;;;38.75;22.13;;;;;;;9.62;90.63;102957.66;5075859;28;20031;-39
2021/10/09 03:40:53;;;;;;;38.83;22.63;;;;;;;9.63;89.95;102963.63;5076178;28;20063;-41
2021/10/09 03:43:21;;;;;;;40.60;22.63;;;;;;;9.60;90.25;102961.31;5076158;28;20025;-39
2021/10/09 03:45:57;;;;;;;42.00;22.58;;;;;;;9.44;90.79;102959.19;5075964;28;20107;-39
2021/10/09 03:53:32;;;;;;;36.92;22.33;;;;;;;9.42;91.00;102959.28;5075662;28;20115;-38
2021/10/09 03:55:57;;;;;;;47.00;22.92;;;;;;;9.42;90.79;102955.91;5075549;28;20055;-40
2021/10/09 03:58:23;;;;;;;41.38;23.05;;;;;;;9.39;90.88;102956.16;5075453;28;20021;-39
2021/10/09 04:00:48;;;;;;;37.75;22.52;;;;;;;9.35;91.08;102950.44;5075540;28;20039;-39
2021/10/09 04:03:13;;;;;;;40.15;22.60;;;;;;;9.41;91.01;102947.34;5075710;28;20056;-39
2021/10/09 04:05:39;;;;;;;34.60;22.17;;;;;;;9.42;90.46;102953.31;5075328;28;20020;-40
2021/10/09 04:08:06;;;;;;;40.08;22.35;;;;;;;9.44;90.53;102956.59;5075371;28;20028;-39
2021/10/09 04:10:33;;;;;;;36.38;21.60;;;;;;;9.39;89.90;102949.22;5075325;28;20024;-39
2021/10/09 04:12:58;;;;;;;37.17;21.23;;;;;;;9.34;90.07;102958.28;5075263;28;20386;-39
2021/10/09 04:15:23;;;;;;;35.95;21.80;;;;;;;9.25;90.17;102947.78;5075184;28;20024;-40
2021/10/09 04:17:49;;;;;;;46.47;22.30;;;;;;;9.23;90.52;102943.69;5075037;28;20561;-39
2021/10/09 04:20:14;;;;;;;40.08;22.85;;;;;;;9.24;90.46;102946.16;5075091;28;20028;-39
2021/10/09 04:22:39;;;;;;;39.88;22.92;;;;;;;9.16;90.87;102934.81;5075356;28;20108;-39
2021/10/09 04:25:06;;;;;;;41.42;22.20;;;;;;;9.19;90.69;102947.47;5075072;28;20036;-39
2021/10/09 04:27:31;;;;;;;39.53;22.92;;;;;;;9.13;90.71;102947.97;5074819;28;20514;-39
2021/10/09 04:29:56;;;;;;;36.47;21.27;;;;;;;9.10;89.76;102949.03;5075509;28;20072;-39
2021/10/09 04:32:22;;;;;;;34.38;21.25;;;;;;;9.11;90.61;102947.25;5074885;28;20479;-39
2021/10/09 04:34:47;;;;;;;35.35;21.63;;;;;;;9.11;90.35;102952.41;5075099;28;20173;-39
2021/10/09 04:37:12;;;;;;;38.20;21.75;;;;;;;9.02;90.66;102957.38;5074990;28;20055;-39
2021/10/09 04:39:37;;;;;;;35.63;22.00;;;;;;;9.04;90.73;102954.69;5074674;28;20548;-40
2021/10/09 04:42:03;;;;;;;41.10;22.35;;;;;;;9.07;90.72;102951.03;5074656;28;20024;-39
2021/10/09 04:44:28;;;;;;;39.08;22.92;;;;;;;8.98;90.34;102944.88;5074937;28;20033;-40
2021/10/09 04:46:54;;;;;;;39.88;22.95;;;;;;;9.06;91.21;102944.22;5074574;28;20395;-39
2021/10/09 04:49:19;;;;;;;37.85;23.08;;;;;;;9.10;90.97;102949.03;5074516;28;20032;-39
2021/10/09 04:51:44;;;;;;;41.58;22.75;;;;;;;9.07;90.28;102951.03;5074891;28;20082;-40
2021/10/09 04:54:10;;;;;;;42.30;23.02;;;;;;;9.06;90.33;102949.38;5074396;28;20103;-40
2021/10/09 04:56:35;;;;;;;41.65;22.63;;;;;;;9.06;90.28;102944.22;5074367;28;20100;-39
2021/10/09 04:59:00;;;;;;;36.13;21.63;;;;;;;9.06;90.13;102939.06;5072888;28;20459;-39
2021/10/09 05:01:26;;;;;;;37.40;22.98;;;;;;;8.95;90.48;102937.38;5074168;28;20037;-40
2021/10/09 05:03:51;;;;;;;36.50;21.67;;;;;;;8.98;90.52;102942.28;5073946;28;20028;-39
2021/10/09 05:06:16;;;;;;;40.33;22.02;;;;;;;8.95;90.03;102939.97;5074450;28;20033;-42
2021/10/09 05:08:41;;;;;;;39.45;22.63;;;;;;;8.95;90.47;102943.34;5074403;28;20027;-39
2021/10/09 05:11:09;;;;;;;39.60;23.08;;;;;;;8.96;90.74;102944.16;5074067;28;20029;-39
2021/10/09 05:13:34;;;;;;;42.95;22.85;;;;;;;9.00;90.35;102945.53;5074285;28;20043;-46
2021/10/09 05:15:59;;;;;;;39.60;23.33;;;;;;;8.97;89.67;102941.44;5073944;28;20024;-39
2021/10/09 05:18:25;;;;;;;43.40;22.63;;;;;;;8.92;89.71;102941.00;5074123;28;20028;-40
2021/10/09 05:20:50;;;;;;;42.53;23.35;;;;;;;8.89;89.51;102950.72;5072617;28;20025;-40
2021/10/09 05:23:16;;;;;;;39.80;22.90;;;;;;;8.92;90.11;102951.34;5072613;28;20021;-40
2021/10/09 05:25:43;;;;;;;37.97;22.85;;;;;;;8.81;90.07;102951.38;5074132;28;20043;-40
2021/10/09 05:28:15;;;;;;;37.17;22.63;;;;;;;8.81;89.65;102949.59;5073657;28;20071;-40
2021/10/09 05:30:46;;;;;;;38.43;22.67;;;;;;;8.72;90.29;102952.09;5074051;28;20029;-40
2021/10/09 05:33:20;;;;;;;38.25;22.58;;;;;;;8.71;90.20;102953.03;5074081;28;20309;-39
2021/10/09 05:35:46;;;;;;;39.28;23.52;;;;;;;8.86;90.32;102956.97;5073806;28;20028;-39
2021/10/09 05:38:11;;;;;;;41.17;23.85;;;;;;;8.73;90.02;102964.03;5073647;28;20031;-40
2021/10/09 05:40:37;;;;;;;41.90;24.25;;;;;;;8.68;90.59;102966.97;5073749;28;20395;-38
2021/10/09 05:43:02;;;;;;;42.25;24.45;;;;;;;8.79;90.68;102966.13;5072515;28;20025;-38
2021/10/09 05:45:28;;;;;;;37.75;22.70;;;;;;;8.81;90.12;102967.66;5073893;28;20032;-39
2021/10/09 05:47:53;;;;;;;39.15;21.88;;;;;;;8.76;89.56;102964.59;5073787;28;20021;-39
2021/10/09 05:50:23;;;;;;;40.50;22.85;;;;;;;8.57;90.47;102965.25;5073479;28;20054;-39
2021/10/09 05:55:20;;;;;;;40.55;23.83;;;;;;;8.63;90.76;102963.97;5074244;28;20044;-40
2021/10/09 06:00:52;;;;;;;40.53;22.73;;;;;;;8.62;90.00;102961.50;5074137;28;20059;-39
2021/10/09 06:25:52;;;;;;;38.72;23.25;;;;;;;8.88;89.90;102982.63;5031290;28;20064;-39
2021/10/09 06:31:29;;;;;;;41.95;23.55;;;;;;;8.82;89.31;102977.00;5073525;28;20052;-39
2021/10/09 06:37:40;;;;;;;44.13;24.10;;;;;;;8.74;90.50;102984.53;5072935;28;20027;-39
2021/10/09 07:00:37;;;;;;;63.47;23.05;;;;;;;8.73;90.58;102997.56;5073258;28;20430;-40
2021/10/09 07:03:03;;;;;;;85.72;23.27;;;;;;;8.74;90.17;103007.72;5073132;28;20028;-40
2021/10/09 07:05:29;;;;;;;66.90;22.63;;;;;;;8.64;90.15;103003.44;5072622;28;20390;-40
2021/10/09 07:07:57;;;;;;;66.03;22.92;;;;;;;8.91;89.61;103016.72;5072660;28;20387;-40
2021/10/09 07:10:22;;;;;;;111.05;21.75;;;;;;;8.30;90.97;103017.13;5071370;28;20020;-40
2021/10/09 07:12:48;;;;;;;226.68;24.52;;;;;;;8.15;92.17;103023.44;5072647;28;20410;-43
2021/10/09 07:15:18;;;;;;;146.30;24.17;;;;;;;8.39;92.66;103020.78;5072853;28;20024;-39
2021/10/09 07:17:45;;;;;;;83.88;24.40;;;;;;;8.64;91.64;103016.31;5072296;28;20051;-41
2021/10/09 07:20:10;;;;;;;155.02;24.27;;;;;;;8.63;90.76;103009.50;5072869;28;20528;-40
2021/10/09 07:22:36;;;;;;;181.68;25.75;;;;;;;8.61;90.99;103034.59;5072540;28;20104;-42
2021/10/09 07:25:02;;;;;;;197.95;26.30;;;;;;;8.55;90.84;103031.56;5073966;28;20463;-40
2021/10/09 07:27:28;;;;;;;178.23;25.50;;;;;;;8.55;91.58;103030.75;5076214;28;20081;-40
2021/10/09 07:29:53;;;;;;;91.47;24.75;;;;;;;8.63;91.32;103046.44;5085833;22;20041;-64
2021/10/09 07:32:18;;;;;;;69.32;25.60;;;;;;;8.57;91.65;103034.84;5057580;28;20040;-64
2021/10/09 07:34:44;;;;;;;150.15;27.95;;;;;;;8.54;92.23;103023.94;5057302;28;20376;-64
2021/10/09 07:37:09;;;;;;;81.95;26.10;;;;;;;8.89;91.47;103034.09;5022992;28;20028;-66
2021/10/09 07:39:35;;;;;;;96.60;26.70;;;;;;;8.99;89.95;103036.75;5057322;28;20032;-64
2021/10/09 07:42:00;;;;;;;74.30;25.67;;;;;;;9.01;90.64;103035.69;5057656;28;20025;-67
2021/10/09 07:44:26;;;;;;;68.15;27.05;;;;;;;9.13;91.05;103039.06;5039103;28;20116;-65
2021/10/09 07:46:52;;;;;;;53.15;25.77;;;;;;;9.33;89.61;103046.97;5039051;28;20031;-63
2021/10/09 07:49:18;;;;;;;80.95;27.17;;;;;;;9.00;90.90;103046.13;5055709;28;20020;-61
2021/10/09 07:51:43;;;;;;;56.42;27.88;;;;;;;9.35;90.34;103050.22;5056320;28;20029;-63
2021/10/09 07:54:08;;;;;;;49.33;27.55;;;;;;;9.51;89.48;103048.06;5055694;28;20104;-64
2021/10/09 07:56:34;;;;;;;49.20;27.98;;;;;;;9.54;89.65;103052.97;5037677;28;20115;-65
2021/10/09 07:58:59;;;;;;;52.65;27.58;;;;;;;9.71;89.33;103056.75;5055503;28;20029;-64
2021/10/09 08:01:24;;;;;;;61.28;27.85;;;;;;;9.73;88.38;103061.81;5037650;28;20048;-62
2021/10/09 08:03:51;;;;;;;56.05;28.60;;;;;;;9.93;88.57;103056.66;5055714;28;20052;-63
2021/10/09 08:06:16;;;;;;;50.55;28.40;;;;;;;9.74;88.91;103060.88;5055638;28;20025;-62
2021/10/09 08:08:42;;;;;;;55.92;28.25;;;;;;;9.83;88.44;103060.91;5055488;28;20642;-62
2021/10/09 08:11:07;;;;;;;49.70;27.58;;;;;;;9.83;88.44;103060.09;5055335;28;20028;-62
2021/10/09 08:13:32;;;;;;;53.80;28.60;;;;;;;9.67;89.78;103057.97;5037154;28;20021;-62
2021/10/09 08:15:58;;;;;;;53.08;29.63;;;;;;;9.80;88.33;103061.16;5055183;28;20096;-62
2021/10/09 08:18:23;;;;;;;51.83;28.35;;;;;;;9.84;88.47;103065.16;5055026;28;20025;-64
2021/10/09 08:20:54;;;;;;;52.10;28.77;;;;;;;9.86;88.40;103060.66;5053844;28;20078;-63
2021/10/09 08:23:22;;;;;;;58.45;30.83;;;;;;;9.51;89.75;103060.16;5054492;28;20032;-62
2021/10/09 08:36:34;;;;;;;58.30;31.50;;;;;;;9.78;88.71;103064.81;5055399;28;20087;-63
2021/10/09 08:39:00;;;;;;;54.65;30.02;;;;;;;9.87;88.87;103069.25;5054975;28;20083;-63
2021/10/09 08:41:25;;;;;;;54.75;29.80;;;;;;;10.17;87.88;103073.63;5054873;28;20037;-63
2021/10/09 08:43:53;;;;;;;49.13;29.08;;;;;;;10.35;87.11;103064.34;5053841;28;20071;-63
2021/10/09 08:46:20;;;;;;;54.30;28.90;;;;;;;10.67;85.58;103057.41;5053520;28;20021;-63
2021/10/09 08:48:49;;;;;;;52.22;28.80;;;;;;;10.77;84.88;103064.25;5054673;28;20025;-63
2021/10/09 08:51:22;;;;;;;52.33;29.20;;;;;;;10.95;84.36;103066.19;5055244;28;20459;-63
2021/10/09 08:53:48;;;;;;;52.92;29.50;;;;;;;11.40;83.96;103061.31;5053400;28;20067;-63
2021/10/09 08:56:35;;;;;;;53.83;28.67;;;;;;;11.45;82.96;103064.31;5053613;28;20021;-62
2021/10/09 08:59:15;;;;;;;47.40;28.30;;;;;;;11.59;81.79;103063.06;5054716;28;20021;-65
2021/10/09 09:01:58;;;;;;;52.47;27.35;;;;;;;12.08;80.25;103074.19;5055223;28;20021;-63
2021/10/09 09:04:43;;;;;;;45.45;27.00;;;;;;;12.31;78.56;103066.06;5054996;28;20387;-63
2021/10/09 09:31:44;;;;;;;33.33;21.08;;;;;;;17.09;61.51;103068.03;5053864;28;20048;-62
2021/10/09 09:34:18;;;;;;;32.33;21.42;;;;;;;22.05;48.54;103060.47;5053982;28;20449;-63
2021/10/09 09:37:07;;;;;;;28.70;19.10;;;;;;;24.70;41.33;103056.44;5053841;28;20046;-63
2021/10/09 09:39:38;;;;;;;26.15;18.38;;;;;;;25.69;38.46;103055.75;5053890;28;20448;-64
2021/10/09 09:42:03;;;;;;;28.27;17.45;;;;;;;21.60;45.30;103044.59;5053664;28;20029;-62
2021/10/09 09:44:28;;;;;;;26.55;18.15;;;;;;;19.46;52.73;103069.63;5053653;28;20017;-61
2021/10/09 09:47:04;;;;;;;25.77;18.40;;;;;;;20.68;46.88;103053.28;5054689;28;20029;-61
2021/10/09 09:49:30;;;;;;;27.60;18.83;;;;;;;21.64;44.53;103047.66;5053252;28;20017;-63
2021/10/09 09:51:56;;;;;;;29.98;18.10;;;;;;;23.63;39.38;103042.94;5053818;28;20067;-62
2021/10/09 09:54:26;;;;;;;28.90;19.00;;;;;;;25.36;37.34;103046.59;5053546;28;20101;-62
2021/10/09 09:56:56;;;;;;;28.10;19.10;;;;;;;26.54;35.48;103040.97;5052245;28;20025;-62
2021/10/09 09:59:27;;;;;;;29.05;19.10;;;;;;;24.19;38.86;103041.88;5053278;28;20031;-61
2021/10/09 10:01:53;;;;;;;27.95;18.75;;;;;;;24.92;37.73;103043.47;5052963;28;20170;-62
2021/10/09 10:04:19;;;;;;;34.50;19.48;;;;;;;23.50;40.85;103032.53;5053354;28;20459;-64
2021/10/09 10:06:44;;;;;;;30.45;19.35;;;;;;;23.15;41.83;103036.50;5053373;28;20049;-63
2021/10/09 10:09:09;;;;;;;28.23;18.65;;;;;;;22.38;43.41;103032.38;5053235;28;20017;-63
2021/10/09 10:11:36;;;;;;;29.40;19.80;;;;;;;21.05;46.40;103032.69;5053256;28;20033;-63
2021/10/09 10:14:03;;;;;;;32.80;19.48;;;;;;;17.80;53.22;103031.97;5053346;28;20603;-63
2021/10/09 10:16:28;;;;;;;30.75;20.42;;;;;;;17.86;56.03;103033.06;5053490;28;20025;-63
2021/10/09 10:18:54;;;;;;;28.25;20.10;;;;;;;18.03;53.99;103034.50;5053223;28;20471;-64
2021/10/09 10:21:38;;;;;;;31.05;20.77;;;;;;;17.89;54.73;103033.50;5053726;28;20025;-61
2021/10/09 10:24:04;;;;;;;31.60;20.27;;;;;;;17.06;55.97;103034.44;5053535;28;20080;-61
2021/10/09 10:26:31;;;;;;;30.70;20.05;;;;;;;17.35;57.21;103031.91;5053261;28;20099;-62
2021/10/09 10:28:56;;;;;;;34.03;21.33;;;;;;;17.65;56.05;103024.09;5053390;28;20025;-62
2021/10/09 10:31:23;;;;;;;28.00;19.83;;;;;;;17.34;55.07;103024.22;5053042;28;20060;-61
2021/10/09 10:34:22;;;;;;;33.75;21.33;;;;;;;17.08;57.69;103022.81;5053152;28;20596;-63
2021/10/09 10:36:46;;;;;;;29.92;21.25;;;;;;;18.08;54.25;103031.34;5050959;28;20037;-63
2021/10/09 10:39:17;;;;;;;34.95;20.10;;;;;;;17.95;55.18;103022.34;5051915;28;20108;-63
2021/10/09 10:42:11;;;;;;;32.70;20.38;;;;;;;18.35;53.02;103032.47;5053398;28;20029;-62
2021/10/09 10:45:02;;;;;;;32.78;19.90;;;;;;;17.59;55.82;103024.81;5052967;28;20533;-64
2021/10/09 10:53:37;;;;;;;32.45;21.55;;;;;;;16.84;56.95;103025.63;5053333;28;20029;-62
2021/10/09 10:56:10;;;;;;;37.80;21.90;;;;;;;18.11;55.36;103023.13;5053473;28;20377;-63
2021/10/09 10:58:36;;;;;;;32.75;21.77;;;;;;;18.56;54.16;103026.44;5052897;28;20487;-63
2021/10/09 11:01:21;;;;;;;33.15;21.15;;;;;;;18.16;55.30;103015.56;5055222;28;20033;-62
2021/10/09 11:03:53;;;;;;;33.30;21.15;;;;;;;18.00;55.60;103021.78;5056691;28;20035;-63
2021/10/09 11:06:20;;;;;;;33.28;20.67;;;;;;;18.30;54.57;103024.34;5057003;28;20017;-63
2021/10/09 11:08:47;;;;;;;31.35;20.90;;;;;;;18.54;53.54;103015.38;5056648;28;20533;-64
2021/10/09 11:11:13;;;;;;;33.70;21.50;;;;;;;17.80;56.13;103022.31;5056480;28;20032;-64
2021/10/09 11:13:41;;;;;;;30.08;21.65;;;;;;;18.46;54.28;103016.28;5056810;28;20025;-64
2021/10/09 11:16:06;;;;;;;32.28;20.67;;;;;;;18.06;54.60;103018.44;5057049;28;20032;-63
2021/10/09 11:18:52;;;;;;;32.45;20.48;;;;;;;18.39;53.62;103015.41;5056335;28;20025;-64
2021/10/09 11:21:18;;;;;;;28.80;20.52;;;;;;;17.75;54.77;103005.53;5056312;28;20075;-63
2021/10/09 11:24:02;;;;;;;37.03;21.13;;;;;;;18.15;54.67;103016.53;5056656;28;20040;-65
2021/10/09 11:26:27;;;;;;;35.35;20.73;;;;;;;18.88;52.70;103007.66;5056735;28;20027;-63
2021/10/09 11:29:07;;;;;;;32.72;22.05;;;;;;;18.74;53.85;103000.69;5056215;28;20364;-64
2021/10/09 11:31:33;;;;;;;30.35;20.77;;;;;;;19.27;52.50;103001.09;5056117;28;20049;-65
2021/10/09 11:34:02;;;;;;;33.13;20.63;;;;;;;19.53;53.64;103002.28;5056678;28;20031;-63
2021/10/09 11:36:28;;;;;;;30.98;19.38;;;;;;;19.56;51.54;103007.16;5056229;28;20032;-64
2021/10/09 11:39:04;;;;;;;35.83;20.27;;;;;;;19.06;51.82;102995.94;5056557;28;20035;-65
2021/10/09 11:41:29;;;;;;;36.88;20.38;;;;;;;19.06;52.42;102993.31;5054712;28;20029;-64
2021/10/09 11:44:02;;;;;;;32.53;20.23;;;;;;;19.04;52.30;103003.97;5055097;28;20132;-63
2021/10/09 11:46:45;;;;;;;32.00;20.27;;;;;;;19.92;51.42;103003.53;5056332;28;20035;-64
2021/10/09 11:57:16;;;;;;;33.15;19.80;;;;;;;26.46;34.21;102996.25;5056608;28;20033;-63
2021/10/09 11:59:42;;;;;;;34.35;19.98;;;;;;;26.70;33.67;103002.22;5055852;28;20017;-63
2021/10/09 12:02:08;;;;;;;30.45;19.10;;;;;;;25.27;36.24;102992.44;5055717;28;20123;-63
2021/10/09 12:04:34;;;;;;;34.40;19.55;;;;;;;26.18;34.14;102995.28;5054348;28;20025;-63
2021/10/09 12:09:45;;;;;;;31.45;19.70;;;;;;;27.10;32.22;102990.59;5054627;28;20116;-65
2021/10/09 12:12:21;;;;;;;29.33;20.05;;;;;;;26.20;34.00;102987.06;5053903;28;20075;-64
2021/10/09 12:14:49;;;;;;;29.17;19.63;;;;;;;27.06;32.63;102995.59;5056190;28;20478;-64
2021/10/09 12:17:15;;;;;;;31.45;19.83;;;;;;;25.97;33.70;102990.66;5055564;28;20025;-64
2021/10/09 12:19:41;;;;;;;28.38;18.98;;;;;;;27.02;32.68;102989.19;5055048;28;20017;-65
2021/10/09 12:22:11;;;;;;;34.85;20.05;;;;;;;27.55;32.18;102989.59;5055658;28;20029;-64
2021/10/09 12:24:50;;;;;;;31.40;19.52;;;;;;;27.79;31.59;102990.13;5055350;28;20029;-65
2021/10/09 12:27:17;;;;;;;30.70;19.35;;;;;;;27.66;31.01;102983.34;5055428;28;20036;-65
2021/10/09 12:29:59;;;;;;;29.95;19.52;;;;;;;27.26;33.20;102986.31;5055390;28;20103;-65
2021/10/09 12:32:25;;;;;;;30.05;19.70;;;;;;;27.36;31.67;102983.78;5055678;28;20025;-66
2021/10/09 12:35:04;;;;;;;33.10;19.45;;;;;;;26.27;33.68;102983.25;5055228;28;20052;-66
2021/10/09 12:37:30;;;;;;;30.42;19.13;;;;;;;23.47;39.76;102974.91;5054943;28;20043;-65
2021/10/09 12:40:16;;;;;;;32.33;19.15;;;;;;;22.12;43.30;102968.28;5055049;28;20037;-65
2021/10/09 12:42:50;;;;;;;30.83;19.58;;;;;;;21.08;45.69;102963.94;5055120;28;20057;-64
2021/10/09 12:45:16;;;;;;;31.27;19.27;;;;;;;19.89;47.30;102969.81;5038361;28;20353;-65
2021/10/09 12:47:43;;;;;;;31.38;19.77;;;;;;;19.57;49.31;102972.06;5053606;28;20075;-65
2021/10/09 12:50:09;;;;;;;29.60;19.35;;;;;;;18.92;50.07;102961.75;5055116;28;20349;-64
2021/10/09 12:52:34;;;;;;;26.60;18.85;;;;;;;19.11;51.29;102960.28;5055187;28;20078;-65
2021/10/09 12:55:02;;;;;;;31.33;19.40;;;;;;;19.35;49.49;102960.84;5054674;28;20017;-64
2021/10/09 12:57:30;;;;;;;30.85;19.65;;;;;;;19.55;50.06;102956.50;5055264;28;20052;-65
2021/10/09 12:59:56;;;;;;;31.23;18.90;;;;;;;19.55;48.89;102958.34;5056164;28;20107;-66
2021/10/09 13:02:21;;;;;;;37.15;20.80;;;;;;;18.49;50.83;102958.31;5056791;28;20163;-64
2021/10/09 13:04:47;;;;;;;31.35;19.98;;;;;;;18.89;51.01;102951.66;5055341;28;20036;-64
2021/10/09 13:07:12;;;;;;;37.67;20.95;;;;;;;18.02;51.56;102944.75;5055114;28;20029;-64
2021/10/09 13:09:37;;;;;;;35.65;20.40;;;;;;;18.26;52.28;102951.44;5055515;28;20021;-66
2021/10/09 13:12:04;;;;;;;33.03;20.65;;;;;;;17.67;53.06;102945.50;5055850;28;20124;-65
2021/10/09 13:14:30;;;;;;;32.85;20.17;;;;;;;17.86;52.70;102949.38;5055847;28;20036;-65
2021/10/09 13:16:56;;;;;;;35.38;20.98;;;;;;;18.05;53.28;102943.56;5055293;28;20028;-65
2021/10/09 13:19:21;;;;;;;38.35;20.60;;;;;;;17.81;53.59;102940.28;5054632;28;20122;-64